sensor_id;sensor_type;location;lat;lon;timestamp;P1;durP1;ratioP1;P2;durP2;ratioP2
54923;SDS011;40825;52.270;20.984;2023-04-24T00:02:12;10.70;;;5.70;;
54923;SDS011;40825;52.270;20.984;2023-04-24T00:04:38;10.00;;;6.30;;
54923;SDS011;40825;52.270;20.984;2023-04-24T00:07:10;10.50;;;5.90;;
54923;SDS011;40825;52.270;20.984;2023-04-24T00:09:36;9.90;;;5.50;;
54923;SDS011;40825;52.270;20.984;2023-04-24T00:12:02;10.90;;;6.10;;
54923;SDS011;40825;52.270;20.984;2023-04-24T00:14:30;11.00;;;5.50;;
54923;SDS011;40825;52.270;20.984;2023-04-24T00:16:56;10.30;;;5.80;;
54923;SDS011;40825;52.270;20.984;2023-04-24T00:19:22;11.70;;;5.80;;
54923;SDS011;40825;52.270;20.984;2023-04-24T00:21:47;11.00;;;6.40;;
54923;SDS011;40825;52.270;20.984;2023-04-24T00:24:15;11.70;;;6.00;;
54923;SDS011;40825;52.270;20.984;2023-04-24T00:26:42;11.10;;;6.70;;
54923;SDS011;40825;52.270;20.984;2023-04-24T00:29:07;10.60;;;6.10;;
54923;SDS011;40825;52.270;20.984;2023-04-24T00:31:32;10.30;;;5.90;;
54923;SDS011;40825;52.270;20.984;2023-04-24T00:34:00;11.10;;;6.00;;
54923;SDS011;40825;52.270;20.984;2023-04-24T00:36:27;10.80;;;6.10;;
54923;SDS011;40825;52.270;20.984;2023-04-24T00:38:53;11.00;;;6.00;;
54923;SDS011;40825;52.270;20.984;2023-04-24T00:41:19;11.90;;;6.30;;
54923;SDS011;40825;52.270;20.984;2023-04-24T00:43:44;13.20;;;6.20;;
54923;SDS011;40825;52.270;20.984;2023-04-24T00:46:11;10.40;;;6.00;;
54923;SDS011;40825;52.270;20.984;2023-04-24T00:48:38;10.50;;;5.60;;
54923;SDS011;40825;52.270;20.984;2023-04-24T00:51:04;10.20;;;6.20;;
54923;SDS011;40825;52.270;20.984;2023-04-24T00:53:30;10.60;;;6.20;;
54923;SDS011;40825;52.270;20.984;2023-04-24T00:55:56;11.70;;;5.60;;
54923;SDS011;40825;52.270;20.984;2023-04-24T00:58:22;11.80;;;6.50;;
54923;SDS011;40825;52.270;20.984;2023-04-24T01:00:48;13.30;;;5.80;;
54923;SDS011;40825;52.270;20.984;2023-04-24T01:03:24;11.90;;;6.40;;
54923;SDS011;40825;52.270;20.984;2023-04-24T01:05:52;9.70;;;5.80;;
54923;SDS011;40825;52.270;20.984;2023-04-24T01:08:19;13.80;;;5.50;;
54923;SDS011;40825;52.270;20.984;2023-04-24T01:10:48;13.60;;;6.70;;
54923;SDS011;40825;52.270;20.984;2023-04-24T01:13:16;12.20;;;6.50;;
54923;SDS011;40825;52.270;20.984;2023-04-24T01:15:43;11.70;;;5.90;;
54923;SDS011;40825;52.270;20.984;2023-04-24T01:18:08;10.90;;;6.70;;
54923;SDS011;40825;52.270;20.984;2023-04-24T01:20:34;11.80;;;6.10;;
54923;SDS011;40825;52.270;20.984;2023-04-24T01:23:01;12.10;;;6.80;;
54923;SDS011;40825;52.270;20.984;2023-04-24T01:25:27;13.60;;;6.10;;
54923;SDS011;40825;52.270;20.984;2023-04-24T01:27:53;12.30;;;6.20;;
54923;SDS011;40825;52.270;20.984;2023-04-24T01:30:19;11.30;;;6.40;;
54923;SDS011;40825;52.270;20.984;2023-04-24T01:32:44;10.00;;;5.90;;
54923;SDS011;40825;52.270;20.984;2023-04-24T01:35:11;11.40;;;6.40;;
54923;SDS011;40825;52.270;20.984;2023-04-24T01:37:36;11.40;;;6.90;;
54923;SDS011;40825;52.270;20.984;2023-04-24T01:40:05;11.60;;;6.20;;
54923;SDS011;40825;52.270;20.984;2023-04-24T01:42:32;11.50;;;6.90;;
54923;SDS011;40825;52.270;20.984;2023-04-24T01:44:59;11.10;;;6.80;;
54923;SDS011;40825;52.270;20.984;2023-04-24T01:47:26;10.30;;;5.70;;
54923;SDS011;40825;52.270;20.984;2023-04-24T01:49:52;12.20;;;7.40;;
54923;SDS011;40825;52.270;20.984;2023-04-24T01:52:18;11.40;;;6.50;;
54923;SDS011;40825;52.270;20.984;2023-04-24T01:54:44;12.40;;;6.20;;
54923;SDS011;40825;52.270;20.984;2023-04-24T01:57:09;11.80;;;6.40;;
54923;SDS011;40825;52.270;20.984;2023-04-24T01:59:35;12.10;;;7.00;;
54923;SDS011;40825;52.270;20.984;2023-04-24T02:02:02;12.70;;;7.20;;
54923;SDS011;40825;52.270;20.984;2023-04-24T02:04:27;11.60;;;6.10;;
54923;SDS011;40825;52.270;20.984;2023-04-24T02:06:53;10.90;;;6.20;;
54923;SDS011;40825;52.270;20.984;2023-04-24T02:09:18;13.00;;;7.10;;
54923;SDS011;40825;52.270;20.984;2023-04-24T02:11:44;11.10;;;6.70;;
54923;SDS011;40825;52.270;20.984;2023-04-24T02:14:09;10.70;;;6.20;;
54923;SDS011;40825;52.270;20.984;2023-04-24T02:16:35;12.50;;;7.10;;
54923;SDS011;40825;52.270;20.984;2023-04-24T02:19:01;13.60;;;6.50;;
54923;SDS011;40825;52.270;20.984;2023-04-24T02:21:27;12.70;;;7.10;;
54923;SDS011;40825;52.270;20.984;2023-04-24T02:23:53;11.40;;;7.10;;
54923;SDS011;40825;52.270;20.984;2023-04-24T02:26:19;11.90;;;7.30;;
54923;SDS011;40825;52.270;20.984;2023-04-24T02:28:44;11.30;;;6.70;;
54923;SDS011;40825;52.270;20.984;2023-04-24T02:31:10;12.60;;;7.30;;
54923;SDS011;40825;52.270;20.984;2023-04-24T02:33:35;12.50;;;6.30;;
54923;SDS011;40825;52.270;20.984;2023-04-24T02:36:01;11.70;;;6.60;;
54923;SDS011;40825;52.270;20.984;2023-04-24T02:38:28;13.00;;;6.10;;
54923;SDS011;40825;52.270;20.984;2023-04-24T02:40:54;12.40;;;6.10;;
54923;SDS011;40825;52.270;20.984;2023-04-24T02:43:20;11.60;;;7.10;;
54923;SDS011;40825;52.270;20.984;2023-04-24T02:45:45;12.20;;;6.50;;
54923;SDS011;40825;52.270;20.984;2023-04-24T02:48:11;12.00;;;6.50;;
54923;SDS011;40825;52.270;20.984;2023-04-24T02:50:37;14.50;;;6.60;;
54923;SDS011;40825;52.270;20.984;2023-04-24T02:53:02;14.00;;;7.40;;
54923;SDS011;40825;52.270;20.984;2023-04-24T02:55:28;13.70;;;6.60;;
54923;SDS011;40825;52.270;20.984;2023-04-24T02:57:54;14.20;;;7.80;;
54923;SDS011;40825;52.270;20.984;2023-04-24T03:00:20;12.60;;;7.40;;
54923;SDS011;40825;52.270;20.984;2023-04-24T03:02:45;12.20;;;6.40;;
54923;SDS011;40825;52.270;20.984;2023-04-24T03:05:11;12.10;;;7.00;;
54923;SDS011;40825;52.270;20.984;2023-04-24T03:07:40;13.40;;;7.00;;
54923;SDS011;40825;52.270;20.984;2023-04-24T03:10:05;13.20;;;6.70;;
54923;SDS011;40825;52.270;20.984;2023-04-24T03:12:32;14.70;;;7.00;;
54923;SDS011;40825;52.270;20.984;2023-04-24T03:14:57;13.70;;;7.20;;
54923;SDS011;40825;52.270;20.984;2023-04-24T03:17:23;11.20;;;6.60;;
54923;SDS011;40825;52.270;20.984;2023-04-24T03:19:48;13.00;;;6.50;;
54923;SDS011;40825;52.270;20.984;2023-04-24T03:22:13;12.70;;;6.80;;
54923;SDS011;40825;52.270;20.984;2023-04-24T03:24:39;13.30;;;7.00;;
54923;SDS011;40825;52.270;20.984;2023-04-24T03:27:05;15.00;;;7.30;;
54923;SDS011;40825;52.270;20.984;2023-04-24T03:29:30;12.00;;;6.90;;
54923;SDS011;40825;52.270;20.984;2023-04-24T03:31:56;16.10;;;8.20;;
54923;SDS011;40825;52.270;20.984;2023-04-24T03:34:22;13.30;;;7.20;;
54923;SDS011;40825;52.270;20.984;2023-04-24T03:36:47;13.60;;;7.00;;
54923;SDS011;40825;52.270;20.984;2023-04-24T03:39:13;14.40;;;7.50;;
54923;SDS011;40825;52.270;20.984;2023-04-24T03:41:38;11.60;;;5.90;;
54923;SDS011;40825;52.270;20.984;2023-04-24T03:44:04;15.60;;;7.10;;
54923;SDS011;40825;52.270;20.984;2023-04-24T03:46:29;14.40;;;8.40;;
54923;SDS011;40825;52.270;20.984;2023-04-24T03:48:55;12.90;;;7.20;;
54923;SDS011;40825;52.270;20.984;2023-04-24T03:51:20;14.30;;;7.50;;
54923;SDS011;40825;52.270;20.984;2023-04-24T03:53:46;13.30;;;7.10;;
54923;SDS011;40825;52.270;20.984;2023-04-24T03:56:12;15.00;;;8.30;;
54923;SDS011;40825;52.270;20.984;2023-04-24T03:58:37;11.90;;;6.60;;
54923;SDS011;40825;52.270;20.984;2023-04-24T04:01:03;11.50;;;7.30;;
54923;SDS011;40825;52.270;20.984;2023-04-24T04:03:28;14.20;;;6.60;;
54923;SDS011;40825;52.270;20.984;2023-04-24T04:05:54;12.70;;;7.30;;
54923;SDS011;40825;52.270;20.984;2023-04-24T04:08:20;13.20;;;7.40;;
54923;SDS011;40825;52.270;20.984;2023-04-24T04:10:45;14.40;;;7.60;;
54923;SDS011;40825;52.270;20.984;2023-04-24T04:13:11;11.90;;;6.70;;
54923;SDS011;40825;52.270;20.984;2023-04-24T04:15:36;12.70;;;6.70;;
54923;SDS011;40825;52.270;20.984;2023-04-24T04:18:02;13.10;;;6.40;;
54923;SDS011;40825;52.270;20.984;2023-04-24T04:20:27;13.20;;;7.40;;
54923;SDS011;40825;52.270;20.984;2023-04-24T04:22:53;11.20;;;6.90;;
54923;SDS011;40825;52.270;20.984;2023-04-24T04:25:18;12.50;;;7.30;;
54923;SDS011;40825;52.270;20.984;2023-04-24T04:27:45;13.90;;;6.70;;
54923;SDS011;40825;52.270;20.984;2023-04-24T04:30:13;11.30;;;6.60;;
54923;SDS011;40825;52.270;20.984;2023-04-24T04:32:39;11.80;;;7.60;;
54923;SDS011;40825;52.270;20.984;2023-04-24T04:35:05;13.60;;;7.00;;
54923;SDS011;40825;52.270;20.984;2023-04-24T04:37:33;14.50;;;7.90;;
54923;SDS011;40825;52.270;20.984;2023-04-24T04:39:59;15.20;;;7.60;;
54923;SDS011;40825;52.270;20.984;2023-04-24T04:42:25;13.80;;;7.40;;
54923;SDS011;40825;52.270;20.984;2023-04-24T04:44:52;12.30;;;6.50;;
54923;SDS011;40825;52.270;20.984;2023-04-24T04:47:18;13.50;;;7.20;;
54923;SDS011;40825;52.270;20.984;2023-04-24T04:49:50;13.70;;;7.60;;
54923;SDS011;40825;52.270;20.984;2023-04-24T04:52:17;14.90;;;7.00;;
54923;SDS011;40825;52.270;20.984;2023-04-24T04:54:43;10.00;;;6.80;;
54923;SDS011;40825;52.270;20.984;2023-04-24T04:57:08;11.20;;;6.60;;
54923;SDS011;40825;52.270;20.984;2023-04-24T04:59:35;12.70;;;8.20;;
54923;SDS011;40825;52.270;20.984;2023-04-24T05:02:00;11.80;;;6.90;;
54923;SDS011;40825;52.270;20.984;2023-04-24T05:04:26;12.30;;;6.70;;
54923;SDS011;40825;52.270;20.984;2023-04-24T05:06:51;12.50;;;7.10;;
54923;SDS011;40825;52.270;20.984;2023-04-24T05:09:18;11.40;;;7.00;;
54923;SDS011;40825;52.270;20.984;2023-04-24T05:11:43;12.70;;;7.00;;
54923;SDS011;40825;52.270;20.984;2023-04-24T05:14:09;13.50;;;7.00;;
54923;SDS011;40825;52.270;20.984;2023-04-24T05:16:35;12.30;;;8.10;;
54923;SDS011;40825;52.270;20.984;2023-04-24T05:19:02;13.10;;;6.80;;
54923;SDS011;40825;52.270;20.984;2023-04-24T05:21:27;13.50;;;6.50;;
54923;SDS011;40825;52.270;20.984;2023-04-24T05:23:53;12.50;;;6.80;;
54923;SDS011;40825;52.270;20.984;2023-04-24T05:26:18;10.00;;;6.00;;
54923;SDS011;40825;52.270;20.984;2023-04-24T05:28:44;10.90;;;6.40;;
54923;SDS011;40825;52.270;20.984;2023-04-24T05:31:10;12.20;;;7.10;;
54923;SDS011;40825;52.270;20.984;2023-04-24T05:33:35;12.60;;;6.70;;
54923;SDS011;40825;52.270;20.984;2023-04-24T05:36:01;12.90;;;6.90;;
54923;SDS011;40825;52.270;20.984;2023-04-24T05:38:26;13.00;;;6.70;;
54923;SDS011;40825;52.270;20.984;2023-04-24T05:40:52;12.30;;;6.90;;
54923;SDS011;40825;52.270;20.984;2023-04-24T05:43:17;11.90;;;7.20;;
54923;SDS011;40825;52.270;20.984;2023-04-24T05:45:43;14.10;;;7.30;;
54923;SDS011;40825;52.270;20.984;2023-04-24T05:48:08;14.50;;;7.00;;
54923;SDS011;40825;52.270;20.984;2023-04-24T05:50:34;11.40;;;6.90;;
54923;SDS011;40825;52.270;20.984;2023-04-24T05:52:59;15.30;;;6.80;;
54923;SDS011;40825;52.270;20.984;2023-04-24T05:55:27;16.90;;;7.20;;
54923;SDS011;40825;52.270;20.984;2023-04-24T05:57:52;15.00;;;7.20;;
54923;SDS011;40825;52.270;20.984;2023-04-24T06:00:18;13.70;;;7.30;;
54923;SDS011;40825;52.270;20.984;2023-04-24T06:02:47;15.70;;;7.70;;
54923;SDS011;40825;52.270;20.984;2023-04-24T06:05:13;14.00;;;7.60;;
54923;SDS011;40825;52.270;20.984;2023-04-24T06:07:39;14.40;;;8.10;;
54923;SDS011;40825;52.270;20.984;2023-04-24T06:10:05;14.40;;;7.40;;
54923;SDS011;40825;52.270;20.984;2023-04-24T06:12:31;14.30;;;7.60;;
54923;SDS011;40825;52.270;20.984;2023-04-24T06:14:57;14.30;;;7.40;;
54923;SDS011;40825;52.270;20.984;2023-04-24T06:17:23;11.90;;;7.50;;
54923;SDS011;40825;52.270;20.984;2023-04-24T06:19:48;15.20;;;6.90;;
54923;SDS011;40825;52.270;20.984;2023-04-24T06:22:14;16.00;;;7.60;;
54923;SDS011;40825;52.270;20.984;2023-04-24T06:24:40;14.80;;;7.70;;
54923;SDS011;40825;52.270;20.984;2023-04-24T06:27:06;13.40;;;6.80;;
54923;SDS011;40825;52.270;20.984;2023-04-24T06:29:32;13.10;;;7.40;;
54923;SDS011;40825;52.270;20.984;2023-04-24T06:31:58;11.70;;;8.00;;
54923;SDS011;40825;52.270;20.984;2023-04-24T06:34:23;12.80;;;6.80;;
54923;SDS011;40825;52.270;20.984;2023-04-24T06:36:49;13.10;;;7.20;;
54923;SDS011;40825;52.270;20.984;2023-04-24T06:39:15;12.00;;;7.40;;
54923;SDS011;40825;52.270;20.984;2023-04-24T06:41:40;12.60;;;7.50;;
54923;SDS011;40825;52.270;20.984;2023-04-24T06:44:06;13.80;;;7.30;;
54923;SDS011;40825;52.270;20.984;2023-04-24T06:46:31;13.10;;;7.10;;
54923;SDS011;40825;52.270;20.984;2023-04-24T06:48:57;11.80;;;7.40;;
54923;SDS011;40825;52.270;20.984;2023-04-24T06:51:23;11.70;;;6.70;;
54923;SDS011;40825;52.270;20.984;2023-04-24T06:53:49;18.10;;;8.50;;
54923;SDS011;40825;52.270;20.984;2023-04-24T06:56:15;17.10;;;7.30;;
54923;SDS011;40825;52.270;20.984;2023-04-24T06:58:41;15.50;;;7.50;;
54923;SDS011;40825;52.270;20.984;2023-04-24T07:01:07;14.40;;;7.40;;
54923;SDS011;40825;52.270;20.984;2023-04-24T07:03:32;17.10;;;7.80;;
54923;SDS011;40825;52.270;20.984;2023-04-24T07:05:58;14.40;;;7.60;;
54923;SDS011;40825;52.270;20.984;2023-04-24T07:08:23;15.80;;;7.40;;
54923;SDS011;40825;52.270;20.984;2023-04-24T07:10:49;13.40;;;7.90;;
54923;SDS011;40825;52.270;20.984;2023-04-24T07:13:15;10.60;;;6.80;;
54923;SDS011;40825;52.270;20.984;2023-04-24T07:15:42;15.80;;;8.60;;
54923;SDS011;40825;52.270;20.984;2023-04-24T07:18:08;14.60;;;7.60;;
54923;SDS011;40825;52.270;20.984;2023-04-24T07:20:33;16.00;;;7.00;;
54923;SDS011;40825;52.270;20.984;2023-04-24T07:22:59;14.20;;;7.80;;
54923;SDS011;40825;52.270;20.984;2023-04-24T07:25:25;12.10;;;7.30;;
54923;SDS011;40825;52.270;20.984;2023-04-24T07:27:51;14.50;;;7.40;;
54923;SDS011;40825;52.270;20.984;2023-04-24T07:30:17;15.20;;;7.30;;
54923;SDS011;40825;52.270;20.984;2023-04-24T07:32:42;21.00;;;7.50;;
54923;SDS011;40825;52.270;20.984;2023-04-24T07:35:08;14.90;;;7.30;;
54923;SDS011;40825;52.270;20.984;2023-04-24T07:37:35;11.90;;;6.70;;
54923;SDS011;40825;52.270;20.984;2023-04-24T07:40:00;16.40;;;7.10;;
54923;SDS011;40825;52.270;20.984;2023-04-24T07:42:26;18.80;;;7.60;;
54923;SDS011;40825;52.270;20.984;2023-04-24T07:44:52;15.20;;;7.20;;
54923;SDS011;40825;52.270;20.984;2023-04-24T07:47:17;11.90;;;7.30;;
54923;SDS011;40825;52.270;20.984;2023-04-24T07:49:43;14.10;;;6.80;;
54923;SDS011;40825;52.270;20.984;2023-04-24T07:52:08;13.30;;;7.50;;
54923;SDS011;40825;52.270;20.984;2023-04-24T07:54:34;13.90;;;7.00;;
54923;SDS011;40825;52.270;20.984;2023-04-24T07:56:59;14.00;;;6.40;;
54923;SDS011;40825;52.270;20.984;2023-04-24T07:59:26;13.80;;;7.60;;
54923;SDS011;40825;52.270;20.984;2023-04-24T08:01:51;14.30;;;6.80;;
54923;SDS011;40825;52.270;20.984;2023-04-24T08:04:16;12.70;;;7.30;;
54923;SDS011;40825;52.270;20.984;2023-04-24T08:06:43;13.10;;;6.80;;
54923;SDS011;40825;52.270;20.984;2023-04-24T08:09:09;13.40;;;6.40;;
54923;SDS011;40825;52.270;20.984;2023-04-24T08:11:34;15.20;;;7.40;;
54923;SDS011;40825;52.270;20.984;2023-04-24T08:14:00;15.80;;;7.50;;
54923;SDS011;40825;52.270;20.984;2023-04-24T08:16:25;14.10;;;6.60;;
54923;SDS011;40825;52.270;20.984;2023-04-24T08:18:51;14.60;;;7.40;;
54923;SDS011;40825;52.270;20.984;2023-04-24T08:21:16;13.90;;;6.70;;
54923;SDS011;40825;52.270;20.984;2023-04-24T08:23:44;15.00;;;7.40;;
54923;SDS011;40825;52.270;20.984;2023-04-24T08:26:10;17.50;;;6.70;;
54923;SDS011;40825;52.270;20.984;2023-04-24T08:28:37;14.60;;;7.20;;
54923;SDS011;40825;52.270;20.984;2023-04-24T08:31:02;13.60;;;8.10;;
54923;SDS011;40825;52.270;20.984;2023-04-24T08:33:28;11.90;;;7.00;;
54923;SDS011;40825;52.270;20.984;2023-04-24T08:35:59;12.00;;;6.70;;
54923;SDS011;40825;52.270;20.984;2023-04-24T08:38:28;13.50;;;6.40;;
54923;SDS011;40825;52.270;20.984;2023-04-24T08:40:54;12.50;;;7.00;;
54923;SDS011;40825;52.270;20.984;2023-04-24T08:43:21;12.00;;;6.80;;
54923;SDS011;40825;52.270;20.984;2023-04-24T08:45:48;13.40;;;7.20;;
54923;SDS011;40825;52.270;20.984;2023-04-24T08:48:14;13.60;;;7.10;;
54923;SDS011;40825;52.270;20.984;2023-04-24T08:50:40;12.70;;;6.70;;
54923;SDS011;40825;52.270;20.984;2023-04-24T08:53:08;14.00;;;7.40;;
54923;SDS011;40825;52.270;20.984;2023-04-24T08:55:34;10.60;;;6.20;;
54923;SDS011;40825;52.270;20.984;2023-04-24T08:58:01;12.00;;;7.10;;
54923;SDS011;40825;52.270;20.984;2023-04-24T09:00:28;10.20;;;6.70;;
54923;SDS011;40825;52.270;20.984;2023-04-24T09:02:54;11.00;;;6.60;;
54923;SDS011;40825;52.270;20.984;2023-04-24T09:05:21;11.70;;;6.00;;
54923;SDS011;40825;52.270;20.984;2023-04-24T09:07:55;11.60;;;6.60;;
54923;SDS011;40825;52.270;20.984;2023-04-24T09:10:22;12.30;;;6.80;;
54923;SDS011;40825;52.270;20.984;2023-04-24T09:12:50;12.90;;;6.30;;
54923;SDS011;40825;52.270;20.984;2023-04-24T09:15:16;12.80;;;6.50;;
54923;SDS011;40825;52.270;20.984;2023-04-24T09:17:42;12.20;;;7.10;;
54923;SDS011;40825;52.270;20.984;2023-04-24T09:20:08;10.20;;;6.00;;
54923;SDS011;40825;52.270;20.984;2023-04-24T09:22:34;11.90;;;5.70;;
54923;SDS011;40825;52.270;20.984;2023-04-24T09:25:06;10.00;;;5.90;;
54923;SDS011;40825;52.270;20.984;2023-04-24T09:27:34;9.90;;;4.90;;
54923;SDS011;40825;52.270;20.984;2023-04-24T09:30:00;10.70;;;5.30;;
54923;SDS011;40825;52.270;20.984;2023-04-24T09:32:26;10.40;;;5.30;;
54923;SDS011;40825;52.270;20.984;2023-04-24T09:35:11;9.30;;;4.70;;
54923;SDS011;40825;52.270;20.984;2023-04-24T09:37:40;8.90;;;4.50;;
54923;SDS011;40825;52.270;20.984;2023-04-24T09:42:37;8.30;;;4.60;;
54923;SDS011;40825;52.270;20.984;2023-04-24T09:45:03;8.10;;;3.90;;
54923;SDS011;40825;52.270;20.984;2023-04-24T09:47:36;8.20;;;4.30;;
54923;SDS011;40825;52.270;20.984;2023-04-24T09:50:09;7.70;;;3.80;;
54923;SDS011;40825;52.270;20.984;2023-04-24T09:52:56;8.70;;;4.10;;
54923;SDS011;40825;52.270;20.984;2023-04-24T09:55:23;8.40;;;4.60;;
54923;SDS011;40825;52.270;20.984;2023-04-24T10:00:23;8.70;;;3.80;;
54923;SDS011;40825;52.270;20.984;2023-04-24T10:02:55;8.90;;;3.80;;
54923;SDS011;40825;52.270;20.984;2023-04-24T10:05:35;9.60;;;4.80;;
54923;SDS011;40825;52.270;20.984;2023-04-24T10:10:31;8.10;;;4.30;;
54923;SDS011;40825;52.270;20.984;2023-04-24T10:12:58;7.20;;;3.80;;
54923;SDS011;40825;52.270;20.984;2023-04-24T10:17:51;11.30;;;3.80;;
54923;SDS011;40825;52.270;20.984;2023-04-24T10:20:21;9.30;;;4.40;;
54923;SDS011;40825;52.270;20.984;2023-04-24T10:22:49;8.60;;;4.20;;
54923;SDS011;40825;52.270;20.984;2023-04-24T10:25:17;7.10;;;4.00;;
54923;SDS011;40825;52.270;20.984;2023-04-24T10:27:45;9.70;;;4.50;;
54923;SDS011;40825;52.270;20.984;2023-04-24T10:30:12;10.10;;;4.20;;
54923;SDS011;40825;52.270;20.984;2023-04-24T10:32:38;9.40;;;3.90;;
54923;SDS011;40825;52.270;20.984;2023-04-24T10:35:03;9.70;;;4.20;;
54923;SDS011;40825;52.270;20.984;2023-04-24T10:37:35;10.40;;;5.70;;
54923;SDS011;40825;52.270;20.984;2023-04-24T10:40:04;8.90;;;5.40;;
54923;SDS011;40825;52.270;20.984;2023-04-24T10:42:31;8.50;;;5.00;;
54923;SDS011;40825;52.270;20.984;2023-04-24T10:44:56;10.30;;;5.00;;
54923;SDS011;40825;52.270;20.984;2023-04-24T10:47:23;10.20;;;5.50;;
54923;SDS011;40825;52.270;20.984;2023-04-24T10:49:50;11.50;;;5.80;;
54923;SDS011;40825;52.270;20.984;2023-04-24T10:52:16;10.20;;;5.80;;
54923;SDS011;40825;52.270;20.984;2023-04-24T10:57:28;10.80;;;5.00;;
54923;SDS011;40825;52.270;20.984;2023-04-24T11:02:41;9.70;;;4.90;;
54923;SDS011;40825;52.270;20.984;2023-04-24T11:05:14;10.30;;;5.20;;
54923;SDS011;40825;52.270;20.984;2023-04-24T11:10:44;8.70;;;4.80;;
54923;SDS011;40825;52.270;20.984;2023-04-24T11:13:22;8.20;;;4.60;;
54923;SDS011;40825;52.270;20.984;2023-04-24T11:18:42;10.00;;;5.60;;
54923;SDS011;40825;52.270;20.984;2023-04-24T11:21:18;7.50;;;4.70;;
54923;SDS011;40825;52.270;20.984;2023-04-24T11:23:45;7.80;;;4.20;;
54923;SDS011;40825;52.270;20.984;2023-04-24T11:28:43;7.90;;;4.40;;
54923;SDS011;40825;52.270;20.984;2023-04-24T11:34:10;7.80;;;4.30;;
54923;SDS011;40825;52.270;20.984;2023-04-24T11:36:43;9.50;;;5.00;;
54923;SDS011;40825;52.270;20.984;2023-04-24T11:39:10;7.40;;;4.10;;
54923;SDS011;40825;52.270;20.984;2023-04-24T11:41:36;7.90;;;4.60;;
54923;SDS011;40825;52.270;20.984;2023-04-24T11:44:02;8.10;;;4.40;;
54923;SDS011;40825;52.270;20.984;2023-04-24T11:46:31;9.00;;;5.20;;
54923;SDS011;40825;52.270;20.984;2023-04-24T11:48:57;8.00;;;4.00;;
54923;SDS011;40825;52.270;20.984;2023-04-24T11:51:23;8.20;;;4.50;;
54923;SDS011;40825;52.270;20.984;2023-04-24T11:53:53;8.00;;;4.00;;
54923;SDS011;40825;52.270;20.984;2023-04-24T11:56:23;7.40;;;4.00;;
54923;SDS011;40825;52.270;20.984;2023-04-24T11:58:53;8.20;;;4.20;;
54923;SDS011;40825;52.270;20.984;2023-04-24T12:01:20;7.70;;;3.70;;
54923;SDS011;40825;52.270;20.984;2023-04-24T12:03:49;8.90;;;3.90;;
54923;SDS011;40825;52.270;20.984;2023-04-24T12:06:16;9.00;;;3.90;;
54923;SDS011;40825;52.270;20.984;2023-04-24T12:08:45;6.30;;;3.60;;
54923;SDS011;40825;52.270;20.984;2023-04-24T12:11:11;7.40;;;3.80;;
54923;SDS011;40825;52.270;20.984;2023-04-24T12:13:40;7.90;;;4.60;;
54923;SDS011;40825;52.270;20.984;2023-04-24T12:16:06;6.90;;;4.10;;
54923;SDS011;40825;52.270;20.984;2023-04-24T12:18:31;7.30;;;3.90;;
54923;SDS011;40825;52.270;20.984;2023-04-24T12:21:18;8.10;;;4.60;;
54923;SDS011;40825;52.270;20.984;2023-04-24T12:23:46;7.00;;;3.80;;
54923;SDS011;40825;52.270;20.984;2023-04-24T12:26:16;8.10;;;3.90;;
54923;SDS011;40825;52.270;20.984;2023-04-24T12:28:45;6.10;;;3.90;;
54923;SDS011;40825;52.270;20.984;2023-04-24T12:31:13;8.00;;;4.10;;
54923;SDS011;40825;52.270;20.984;2023-04-24T12:33:38;8.90;;;4.30;;
54923;SDS011;40825;52.270;20.984;2023-04-24T12:36:04;7.10;;;3.90;;
54923;SDS011;40825;52.270;20.984;2023-04-24T12:38:31;9.00;;;4.60;;
54923;SDS011;40825;52.270;20.984;2023-04-24T12:43:31;10.80;;;3.90;;
54923;SDS011;40825;52.270;20.984;2023-04-24T12:45:57;6.10;;;3.40;;
54923;SDS011;40825;52.270;20.984;2023-04-24T12:48:24;9.70;;;3.80;;
54923;SDS011;40825;52.270;20.984;2023-04-24T12:50:51;9.40;;;4.00;;
54923;SDS011;40825;52.270;20.984;2023-04-24T12:53:16;8.70;;;4.30;;
54923;SDS011;40825;52.270;20.984;2023-04-24T12:55:42;8.10;;;4.10;;
54923;SDS011;40825;52.270;20.984;2023-04-24T12:58:09;12.50;;;3.30;;
54923;SDS011;40825;52.270;20.984;2023-04-24T13:00:35;19.00;;;3.50;;
54923;SDS011;40825;52.270;20.984;2023-04-24T13:03:01;10.90;;;2.80;;
54923;SDS011;40825;52.270;20.984;2023-04-24T13:05:27;10.80;;;2.90;;
54923;SDS011;40825;52.270;20.984;2023-04-24T13:07:54;12.20;;;3.20;;
54923;SDS011;40825;52.270;20.984;2023-04-24T13:10:19;9.30;;;2.80;;
54923;SDS011;40825;52.270;20.984;2023-04-24T13:12:45;7.80;;;2.60;;
54923;SDS011;40825;52.270;20.984;2023-04-24T13:15:11;7.70;;;2.40;;
54923;SDS011;40825;52.270;20.984;2023-04-24T13:17:37;9.60;;;3.10;;
54923;SDS011;40825;52.270;20.984;2023-04-24T13:20:03;7.00;;;2.60;;
54923;SDS011;40825;52.270;20.984;2023-04-24T13:22:29;7.80;;;2.70;;
54923;SDS011;40825;52.270;20.984;2023-04-24T13:24:55;8.30;;;2.70;;
54923;SDS011;40825;52.270;20.984;2023-04-24T13:27:21;9.90;;;2.50;;
54923;SDS011;40825;52.270;20.984;2023-04-24T13:29:46;7.60;;;2.80;;
54923;SDS011;40825;52.270;20.984;2023-04-24T13:32:12;4.80;;;2.30;;
54923;SDS011;40825;52.270;20.984;2023-04-24T13:34:38;6.10;;;2.80;;
54923;SDS011;40825;52.270;20.984;2023-04-24T13:37:04;6.90;;;2.70;;
54923;SDS011;40825;52.270;20.984;2023-04-24T13:39:30;7.10;;;2.90;;
54923;SDS011;40825;52.270;20.984;2023-04-24T13:41:55;7.60;;;3.20;;
54923;SDS011;40825;52.270;20.984;2023-04-24T13:44:21;7.30;;;2.70;;
54923;SDS011;40825;52.270;20.984;2023-04-24T13:46:48;5.40;;;2.80;;
54923;SDS011;40825;52.270;20.984;2023-04-24T13:49:16;5.10;;;2.80;;
54923;SDS011;40825;52.270;20.984;2023-04-24T13:51:43;5.80;;;3.00;;
54923;SDS011;40825;52.270;20.984;2023-04-24T13:56:36;5.60;;;2.30;;
54923;SDS011;40825;52.270;20.984;2023-04-24T13:59:02;5.20;;;2.50;;
54923;SDS011;40825;52.270;20.984;2023-04-24T14:01:27;6.00;;;2.60;;
54923;SDS011;40825;52.270;20.984;2023-04-24T14:03:53;6.70;;;2.90;;
54923;SDS011;40825;52.270;20.984;2023-04-24T14:06:20;4.00;;;2.00;;
54923;SDS011;40825;52.270;20.984;2023-04-24T14:08:46;6.60;;;3.10;;
54923;SDS011;40825;52.270;20.984;2023-04-24T14:11:12;5.10;;;2.20;;
54923;SDS011;40825;52.270;20.984;2023-04-24T14:13:40;4.30;;;2.20;;
54923;SDS011;40825;52.270;20.984;2023-04-24T14:16:06;8.30;;;2.90;;
54923;SDS011;40825;52.270;20.984;2023-04-24T14:18:32;6.30;;;2.80;;
54923;SDS011;40825;52.270;20.984;2023-04-24T14:20:57;4.80;;;2.50;;
54923;SDS011;40825;52.270;20.984;2023-04-24T14:23:24;4.70;;;2.60;;
54923;SDS011;40825;52.270;20.984;2023-04-24T14:25:49;5.40;;;2.70;;
54923;SDS011;40825;52.270;20.984;2023-04-24T14:28:16;5.30;;;2.70;;
54923;SDS011;40825;52.270;20.984;2023-04-24T14:30:43;4.70;;;2.50;;
54923;SDS011;40825;52.270;20.984;2023-04-24T14:33:08;5.50;;;2.40;;
54923;SDS011;40825;52.270;20.984;2023-04-24T14:35:34;7.10;;;2.70;;
54923;SDS011;40825;52.270;20.984;2023-04-24T14:38:00;6.10;;;2.90;;
54923;SDS011;40825;52.270;20.984;2023-04-24T14:40:26;4.10;;;2.60;;
54923;SDS011;40825;52.270;20.984;2023-04-24T14:42:51;6.90;;;3.00;;
54923;SDS011;40825;52.270;20.984;2023-04-24T14:45:17;3.40;;;2.10;;
54923;SDS011;40825;52.270;20.984;2023-04-24T14:47:43;6.10;;;2.80;;
54923;SDS011;40825;52.270;20.984;2023-04-24T14:50:10;5.20;;;2.40;;
54923;SDS011;40825;52.270;20.984;2023-04-24T14:52:35;4.50;;;2.50;;
54923;SDS011;40825;52.270;20.984;2023-04-24T14:55:01;5.60;;;2.50;;